sensor_id;sensor_type;location;lat;lon;timestamp;temperature;humidity
21167;DHT22;10741;52.272;9.580;2023-08-31T00:02:13;13.10;99.90
21167;DHT22;10741;52.272;9.580;2023-08-31T00:04:39;13.10;99.90
21167;DHT22;10741;52.272;9.580;2023-08-31T00:07:05;13.20;99.90
21167;DHT22;10741;52.272;9.580;2023-08-31T00:09:32;13.20;99.90
21167;DHT22;10741;52.272;9.580;2023-08-31T00:11:58;13.20;99.90
21167;DHT22;10741;52.272;9.580;2023-08-31T00:14:24;13.20;99.90
21167;DHT22;10741;52.272;9.580;2023-08-31T00:16:50;13.20;99.90
21167;DHT22;10741;52.272;9.580;2023-08-31T00:19:16;13.20;99.90
21167;DHT22;10741;52.272;9.580;2023-08-31T00:21:42;13.10;99.90
21167;DHT22;10741;52.272;9.580;2023-08-31T00:24:08;13.10;99.90
21167;DHT22;10741;52.272;9.580;2023-08-31T00:26:36;13.10;99.90
21167;DHT22;10741;52.272;9.580;2023-08-31T00:29:06;13.00;99.90
21167;DHT22;10741;52.272;9.580;2023-08-31T00:31:32;13.00;99.90
21167;DHT22;10741;52.272;9.580;2023-08-31T00:33:59;13.00;99.90
21167;DHT22;10741;52.272;9.580;2023-08-31T00:36:33;12.90;99.90
21167;DHT22;10741;52.272;9.580;2023-08-31T00:39:02;12.90;99.90
21167;DHT22;10741;52.272;9.580;2023-08-31T00:41:31;12.90;99.90
21167;DHT22;10741;52.272;9.580;2023-08-31T00:43:56;12.90;99.90
21167;DHT22;10741;52.272;9.580;2023-08-31T00:46:22;12.90;99.90
21167;DHT22;10741;52.272;9.580;2023-08-31T00:48:48;12.90;99.90
21167;DHT22;10741;52.272;9.580;2023-08-31T00:51:14;12.90;99.90
21167;DHT22;10741;52.272;9.580;2023-08-31T00:53:40;12.90;99.90
21167;DHT22;10741;52.272;9.580;2023-08-31T00:56:07;12.80;99.90
21167;DHT22;10741;52.272;9.580;2023-08-31T00:58:33;12.90;99.90
21167;DHT22;10741;52.272;9.580;2023-08-31T01:01:21;12.90;99.90
21167;DHT22;10741;52.272;9.580;2023-08-31T01:06:40;12.80;99.90
21167;DHT22;10741;52.272;9.580;2023-08-31T01:12:11;12.80;99.90
21167;DHT22;10741;52.272;9.580;2023-08-31T01:14:54;12.70;99.90
21167;DHT22;10741;52.272;9.580;2023-08-31T01:17:26;12.70;99.90
21167;DHT22;10741;52.272;9.580;2023-08-31T01:19:55;12.70;99.90
21167;DHT22;10741;52.272;9.580;2023-08-31T01:22:43;12.70;99.90
21167;DHT22;10741;52.272;9.580;2023-08-31T01:25:09;12.60;99.90
21167;DHT22;10741;52.272;9.580;2023-08-31T01:27:36;12.60;99.90
21167;DHT22;10741;52.272;9.580;2023-08-31T01:30:04;12.60;99.90
21167;DHT22;10741;52.272;9.580;2023-08-31T01:32:31;12.60;99.90
21167;DHT22;10741;52.272;9.580;2023-08-31T01:34:57;12.60;99.90
21167;DHT22;10741;52.272;9.580;2023-08-31T01:40:37;12.50;99.90
21167;DHT22;10741;52.272;9.580;2023-08-31T01:43:05;12.50;99.90
21167;DHT22;10741;52.272;9.580;2023-08-31T01:45:32;12.50;99.90
21167;DHT22;10741;52.272;9.580;2023-08-31T01:48:06;12.50;99.90
21167;DHT22;10741;52.272;9.580;2023-08-31T01:50:31;12.50;99.90
21167;DHT22;10741;52.272;9.580;2023-08-31T01:52:57;12.50;99.90
21167;DHT22;10741;52.272;9.580;2023-08-31T01:55:24;12.50;99.90
21167;DHT22;10741;52.272;9.580;2023-08-31T01:57:50;12.50;99.90
21167;DHT22;10741;52.272;9.580;2023-08-31T02:00:19;12.50;99.90
21167;DHT22;10741;52.272;9.580;2023-08-31T02:02:45;12.60;99.90
21167;DHT22;10741;52.272;9.580;2023-08-31T02:05:11;12.60;99.90
21167;DHT22;10741;52.272;9.580;2023-08-31T02:07:37;12.60;99.90
21167;DHT22;10741;52.272;9.580;2023-08-31T02:10:03;12.50;99.90
21167;DHT22;10741;52.272;9.580;2023-08-31T02:12:32;12.50;99.90
21167;DHT22;10741;52.272;9.580;2023-08-31T02:14:58;12.50;99.90
21167;DHT22;10741;52.272;9.580;2023-08-31T02:17:23;12.50;99.90
21167;DHT22;10741;52.272;9.580;2023-08-31T02:19:51;12.50;99.90
21167;DHT22;10741;52.272;9.580;2023-08-31T02:22:16;12.50;99.90
21167;DHT22;10741;52.272;9.580;2023-08-31T02:24:42;12.50;99.90
21167;DHT22;10741;52.272;9.580;2023-08-31T02:27:08;12.50;99.90
21167;DHT22;10741;52.272;9.580;2023-08-31T02:29:33;12.50;99.90
21167;DHT22;10741;52.272;9.580;2023-08-31T02:31:59;12.40;99.90
21167;DHT22;10741;52.272;9.580;2023-08-31T02:34:25;12.40;99.90
21167;DHT22;10741;52.272;9.580;2023-08-31T02:36:51;12.40;99.90
21167;DHT22;10741;52.272;9.580;2023-08-31T02:39:16;12.40;99.90
21167;DHT22;10741;52.272;9.580;2023-08-31T02:41:42;12.40;99.90
21167;DHT22;10741;52.272;9.580;2023-08-31T02:44:08;12.40;99.90
21167;DHT22;10741;52.272;9.580;2023-08-31T02:46:34;12.50;99.90
21167;DHT22;10741;52.272;9.580;2023-08-31T02:48:59;12.50;99.90
21167;DHT22;10741;52.272;9.580;2023-08-31T02:51:25;12.40;99.90
21167;DHT22;10741;52.272;9.580;2023-08-31T02:53:51;12.40;99.90
21167;DHT22;10741;52.272;9.580;2023-08-31T02:56:18;12.40;99.90
21167;DHT22;10741;52.272;9.580;2023-08-31T02:58:44;12.30;99.90
21167;DHT22;10741;52.272;9.580;2023-08-31T03:01:11;12.30;99.90
21167;DHT22;10741;52.272;9.580;2023-08-31T03:03:38;12.40;99.90
21167;DHT22;10741;52.272;9.580;2023-08-31T03:06:05;12.40;99.90
21167;DHT22;10741;52.272;9.580;2023-08-31T03:08:31;12.50;99.90
21167;DHT22;10741;52.272;9.580;2023-08-31T03:10:57;12.50;99.90
21167;DHT22;10741;52.272;9.580;2023-08-31T03:13:24;12.60;99.90
21167;DHT22;10741;52.272;9.580;2023-08-31T03:15:50;12.60;99.90
21167;DHT22;10741;52.272;9.580;2023-08-31T03:18:16;12.60;99.90
21167;DHT22;10741;52.272;9.580;2023-08-31T03:20:41;12.60;99.90
21167;DHT22;10741;52.272;9.580;2023-08-31T03:23:08;12.60;99.90
21167;DHT22;10741;52.272;9.580;2023-08-31T03:25:35;12.50;99.90
21167;DHT22;10741;52.272;9.580;2023-08-31T03:28:01;12.50;99.90
21167;DHT22;10741;52.272;9.580;2023-08-31T03:30:26;12.50;99.90
21167;DHT22;10741;52.272;9.580;2023-08-31T03:32:52;12.40;99.90
21167;DHT22;10741;52.272;9.580;2023-08-31T03:35:18;12.40;99.90
21167;DHT22;10741;52.272;9.580;2023-08-31T03:37:47;12.40;99.90
21167;DHT22;10741;52.272;9.580;2023-08-31T03:40:13;12.30;99.90
21167;DHT22;10741;52.272;9.580;2023-08-31T03:42:38;12.30;99.90
21167;DHT22;10741;52.272;9.580;2023-08-31T03:45:05;12.30;99.90
21167;DHT22;10741;52.272;9.580;2023-08-31T03:47:30;12.20;99.90
21167;DHT22;10741;52.272;9.580;2023-08-31T03:49:56;12.20;99.90
21167;DHT22;10741;52.272;9.580;2023-08-31T03:52:22;12.20;99.90
21167;DHT22;10741;52.272;9.580;2023-08-31T03:54:49;12.20;99.90
21167;DHT22;10741;52.272;9.580;2023-08-31T03:57:15;12.20;99.90
21167;DHT22;10741;52.272;9.580;2023-08-31T03:59:40;12.20;99.90
21167;DHT22;10741;52.272;9.580;2023-08-31T04:02:06;12.20;99.90
21167;DHT22;10741;52.272;9.580;2023-08-31T04:04:32;12.10;99.90
21167;DHT22;10741;52.272;9.580;2023-08-31T04:06:59;12.10;99.90
21167;DHT22;10741;52.272;9.580;2023-08-31T04:09:25;12.10;99.90
21167;DHT22;10741;52.272;9.580;2023-08-31T04:11:51;12.10;99.90
21167;DHT22;10741;52.272;9.580;2023-08-31T04:14:16;12.10;99.90
21167;DHT22;10741;52.272;9.580;2023-08-31T04:16:44;12.10;99.90
21167;DHT22;10741;52.272;9.580;2023-08-31T04:19:10;12.10;99.90
21167;DHT22;10741;52.272;9.580;2023-08-31T04:21:36;12.10;99.90
21167;DHT22;10741;52.272;9.580;2023-08-31T04:24:03;12.10;99.90
21167;DHT22;10741;52.272;9.580;2023-08-31T04:26:29;12.10;99.90
21167;DHT22;10741;52.272;9.580;2023-08-31T04:28:55;12.10;99.90
21167;DHT22;10741;52.272;9.580;2023-08-31T04:31:21;12.10;99.90
21167;DHT22;10741;52.272;9.580;2023-08-31T04:33:47;12.10;99.90
21167;DHT22;10741;52.272;9.580;2023-08-31T04:36:13;12.10;99.90
21167;DHT22;10741;52.272;9.580;2023-08-31T04:38:39;12.10;99.90
21167;DHT22;10741;52.272;9.580;2023-08-31T04:41:05;12.20;99.90
21167;DHT22;10741;52.272;9.580;2023-08-31T04:43:31;12.20;99.90
21167;DHT22;10741;52.272;9.580;2023-08-31T04:45:57;12.20;99.90
21167;DHT22;10741;52.272;9.580;2023-08-31T04:48:22;12.20;99.90
21167;DHT22;10741;52.272;9.580;2023-08-31T04:50:48;12.20;99.90
21167;DHT22;10741;52.272;9.580;2023-08-31T04:53:14;12.30;99.90
21167;DHT22;10741;52.272;9.580;2023-08-31T04:55:40;12.30;99.90
21167;DHT22;10741;52.272;9.580;2023-08-31T04:58:05;12.30;99.90
21167;DHT22;10741;52.272;9.580;2023-08-31T05:00:31;12.30;99.90
21167;DHT22;10741;52.272;9.580;2023-08-31T05:02:57;12.30;99.90
21167;DHT22;10741;52.272;9.580;2023-08-31T05:05:23;12.30;99.90
21167;DHT22;10741;52.272;9.580;2023-08-31T05:07:49;12.30;99.90
21167;DHT22;10741;52.272;9.580;2023-08-31T05:10:15;12.30;99.90
21167;DHT22;10741;52.272;9.580;2023-08-31T05:12:42;12.40;99.90
21167;DHT22;10741;52.272;9.580;2023-08-31T05:15:08;12.40;99.90
21167;DHT22;10741;52.272;9.580;2023-08-31T05:17:35;12.40;99.90
21167;DHT22;10741;52.272;9.580;2023-08-31T05:20:00;12.50;99.90
21167;DHT22;10741;52.272;9.580;2023-08-31T05:22:26;12.60;99.90
21167;DHT22;10741;52.272;9.580;2023-08-31T05:24:52;12.60;99.90
21167;DHT22;10741;52.272;9.580;2023-08-31T05:27:17;12.70;99.90
21167;DHT22;10741;52.272;9.580;2023-08-31T05:29:43;12.70;99.90
21167;DHT22;10741;52.272;9.580;2023-08-31T05:32:09;12.80;99.90
21167;DHT22;10741;52.272;9.580;2023-08-31T05:34:35;12.80;99.90
21167;DHT22;10741;52.272;9.580;2023-08-31T05:37:04;12.80;99.90
21167;DHT22;10741;52.272;9.580;2023-08-31T05:39:32;12.90;99.90
21167;DHT22;10741;52.272;9.580;2023-08-31T05:41:58;12.90;99.90
21167;DHT22;10741;52.272;9.580;2023-08-31T05:44:24;12.90;99.90
21167;DHT22;10741;52.272;9.580;2023-08-31T05:46:50;13.00;99.90
21167;DHT22;10741;52.272;9.580;2023-08-31T05:49:15;13.00;99.90
21167;DHT22;10741;52.272;9.580;2023-08-31T05:51:41;13.00;99.90
21167;DHT22;10741;52.272;9.580;2023-08-31T05:54:07;13.00;99.90
21167;DHT22;10741;52.272;9.580;2023-08-31T05:56:38;13.10;99.90
21167;DHT22;10741;52.272;9.580;2023-08-31T05:59:05;13.20;99.90
21167;DHT22;10741;52.272;9.580;2023-08-31T06:01:31;13.20;99.90
21167;DHT22;10741;52.272;9.580;2023-08-31T06:03:57;13.30;99.90
21167;DHT22;10741;52.272;9.580;2023-08-31T06:06:23;13.40;99.90
21167;DHT22;10741;52.272;9.580;2023-08-31T06:08:49;13.50;99.90
21167;DHT22;10741;52.272;9.580;2023-08-31T06:11:15;13.60;99.90
21167;DHT22;10741;52.272;9.580;2023-08-31T06:13:41;13.70;99.90
21167;DHT22;10741;52.272;9.580;2023-08-31T06:16:07;13.70;99.90
21167;DHT22;10741;52.272;9.580;2023-08-31T06:18:32;13.80;99.90
21167;DHT22;10741;52.272;9.580;2023-08-31T06:20:58;13.80;99.90
21167;DHT22;10741;52.272;9.580;2023-08-31T06:23:24;13.80;99.90
21167;DHT22;10741;52.272;9.580;2023-08-31T06:25:50;13.80;99.90
21167;DHT22;10741;52.272;9.580;2023-08-31T06:28:15;13.80;99.90
21167;DHT22;10741;52.272;9.580;2023-08-31T06:30:42;13.90;99.90
21167;DHT22;10741;52.272;9.580;2023-08-31T06:33:12;13.90;99.90
21167;DHT22;10741;52.272;9.580;2023-08-31T06:35:38;13.90;99.90
21167;DHT22;10741;52.272;9.580;2023-08-31T06:38:04;13.80;99.90
21167;DHT22;10741;52.272;9.580;2023-08-31T06:40:30;13.90;99.90
21167;DHT22;10741;52.272;9.580;2023-08-31T06:42:56;13.80;99.90
21167;DHT22;10741;52.272;9.580;2023-08-31T06:45:22;13.80;99.90
21167;DHT22;10741;52.272;9.580;2023-08-31T06:47:47;13.80;99.90
21167;DHT22;10741;52.272;9.580;2023-08-31T06:50:13;13.90;99.90
21167;DHT22;10741;52.272;9.580;2023-08-31T06:52:39;13.90;99.90
21167;DHT22;10741;52.272;9.580;2023-08-31T06:55:06;13.90;99.90
21167;DHT22;10741;52.272;9.580;2023-08-31T06:57:32;14.00;99.90
21167;DHT22;10741;52.272;9.580;2023-08-31T06:59:58;14.20;99.90
21167;DHT22;10741;52.272;9.580;2023-08-31T07:02:26;14.30;99.90
21167;DHT22;10741;52.272;9.580;2023-08-31T07:04:53;14.20;99.90
21167;DHT22;10741;52.272;9.580;2023-08-31T07:07:18;14.20;99.90
21167;DHT22;10741;52.272;9.580;2023-08-31T07:09:46;14.30;99.90
21167;DHT22;10741;52.272;9.580;2023-08-31T07:12:12;14.40;99.90
21167;DHT22;10741;52.272;9.580;2023-08-31T07:14:38;14.50;99.90
21167;DHT22;10741;52.272;9.580;2023-08-31T07:17:04;14.60;99.90
21167;DHT22;10741;52.272;9.580;2023-08-31T07:19:30;14.80;99.90
21167;DHT22;10741;52.272;9.580;2023-08-31T07:21:56;14.90;99.90
21167;DHT22;10741;52.272;9.580;2023-08-31T07:24:23;15.10;99.90
21167;DHT22;10741;52.272;9.580;2023-08-31T07:26:49;15.20;99.90
21167;DHT22;10741;52.272;9.580;2023-08-31T07:29:15;15.30;99.90
21167;DHT22;10741;52.272;9.580;2023-08-31T07:31:41;15.40;99.90
21167;DHT22;10741;52.272;9.580;2023-08-31T07:34:06;15.50;99.90
21167;DHT22;10741;52.272;9.580;2023-08-31T07:36:33;15.70;99.90
21167;DHT22;10741;52.272;9.580;2023-08-31T07:38:58;15.90;99.90
21167;DHT22;10741;52.272;9.580;2023-08-31T07:41:24;16.10;99.90
21167;DHT22;10741;52.272;9.580;2023-08-31T07:43:50;16.30;99.90
21167;DHT22;10741;52.272;9.580;2023-08-31T07:46:17;16.70;99.90
21167;DHT22;10741;52.272;9.580;2023-08-31T07:48:43;17.10;99.90
21167;DHT22;10741;52.272;9.580;2023-08-31T07:51:08;17.50;99.90
21167;DHT22;10741;52.272;9.580;2023-08-31T07:53:34;17.80;99.90
21167;DHT22;10741;52.272;9.580;2023-08-31T07:56:00;18.10;99.90
21167;DHT22;10741;52.272;9.580;2023-08-31T07:58:26;18.00;99.90
21167;DHT22;10741;52.272;9.580;2023-08-31T08:00:55;18.30;99.90
21167;DHT22;10741;52.272;9.580;2023-08-31T08:03:24;18.50;99.90
21167;DHT22;10741;52.272;9.580;2023-08-31T08:05:51;18.70;99.90
21167;DHT22;10741;52.272;9.580;2023-08-31T08:08:16;19.00;99.90
21167;DHT22;10741;52.272;9.580;2023-08-31T08:10:42;19.10;99.90
21167;DHT22;10741;52.272;9.580;2023-08-31T08:13:09;19.10;99.90
21167;DHT22;10741;52.272;9.580;2023-08-31T08:15:35;19.10;99.90
21167;DHT22;10741;52.272;9.580;2023-08-31T08:18:01;18.60;99.90
21167;DHT22;10741;52.272;9.580;2023-08-31T08:20:27;18.10;99.90
21167;DHT22;10741;52.272;9.580;2023-08-31T08:22:56;17.80;99.90
21167;DHT22;10741;52.272;9.580;2023-08-31T08:25:23;17.80;99.90
21167;DHT22;10741;52.272;9.580;2023-08-31T08:27:49;17.30;99.90
21167;DHT22;10741;52.272;9.580;2023-08-31T08:30:15;16.90;99.90
21167;DHT22;10741;52.272;9.580;2023-08-31T08:32:42;16.70;99.90
21167;DHT22;10741;52.272;9.580;2023-08-31T08:35:08;16.50;99.90
21167;DHT22;10741;52.272;9.580;2023-08-31T08:37:34;16.50;99.90
21167;DHT22;10741;52.272;9.580;2023-08-31T08:40:00;16.40;99.90
21167;DHT22;10741;52.272;9.580;2023-08-31T08:42:26;16.20;99.90
21167;DHT22;10741;52.272;9.580;2023-08-31T08:44:56;16.20;99.90
21167;DHT22;10741;52.272;9.580;2023-08-31T08:47:24;16.30;99.90
21167;DHT22;10741;52.272;9.580;2023-08-31T08:49:50;16.30;99.90
21167;DHT22;10741;52.272;9.580;2023-08-31T08:52:16;16.40;99.90
21167;DHT22;10741;52.272;9.580;2023-08-31T08:54:43;16.40;99.90
21167;DHT22;10741;52.272;9.580;2023-08-31T08:57:10;16.30;99.90
21167;DHT22;10741;52.272;9.580;2023-08-31T08:59:35;16.20;99.90
21167;DHT22;10741;52.272;9.580;2023-08-31T09:02:01;16.10;99.90
21167;DHT22;10741;52.272;9.580;2023-08-31T09:04:30;16.20;99.90
21167;DHT22;10741;52.272;9.580;2023-08-31T09:06:56;16.10;99.90
21167;DHT22;10741;52.272;9.580;2023-08-31T09:09:21;16.00;99.90
21167;DHT22;10741;52.272;9.580;2023-08-31T09:11:48;15.80;99.90
21167;DHT22;10741;52.272;9.580;2023-08-31T09:14:18;16.00;99.90
21167;DHT22;10741;52.272;9.580;2023-08-31T09:16:49;16.20;99.90
21167;DHT22;10741;52.272;9.580;2023-08-31T09:19:24;16.20;99.90
21167;DHT22;10741;52.272;9.580;2023-08-31T09:21:51;16.40;99.90
21167;DHT22;10741;52.272;9.580;2023-08-31T09:24:17;16.40;99.90
21167;DHT22;10741;52.272;9.580;2023-08-31T09:26:53;16.40;99.90
21167;DHT22;10741;52.272;9.580;2023-08-31T09:29:19;16.50;99.90
21167;DHT22;10741;52.272;9.580;2023-08-31T09:31:45;16.50;99.90
21167;DHT22;10741;52.272;9.580;2023-08-31T09:34:15;16.50;99.90
21167;DHT22;10741;52.272;9.580;2023-08-31T09:36:42;16.70;99.90
21167;DHT22;10741;52.272;9.580;2023-08-31T09:39:08;16.80;99.90
21167;DHT22;10741;52.272;9.580;2023-08-31T09:41:54;16.90;99.90
21167;DHT22;10741;52.272;9.580;2023-08-31T09:44:20;16.80;99.90
21167;DHT22;10741;52.272;9.580;2023-08-31T09:46:47;16.90;99.90
21167;DHT22;10741;52.272;9.580;2023-08-31T09:49:17;17.10;99.90
21167;DHT22;10741;52.272;9.580;2023-08-31T09:51:47;17.30;99.90
21167;DHT22;10741;52.272;9.580;2023-08-31T09:54:16;17.60;99.90
21167;DHT22;10741;52.272;9.580;2023-08-31T09:56:43;17.60;99.90
21167;DHT22;10741;52.272;9.580;2023-08-31T09:59:13;17.60;99.90
21167;DHT22;10741;52.272;9.580;2023-08-31T10:01:45;17.70;99.90
21167;DHT22;10741;52.272;9.580;2023-08-31T10:04:11;17.70;99.90
21167;DHT22;10741;52.272;9.580;2023-08-31T10:06:42;17.90;99.90
21167;DHT22;10741;52.272;9.580;2023-08-31T10:09:08;17.80;99.90
21167;DHT22;10741;52.272;9.580;2023-08-31T10:11:35;17.90;99.90
21167;DHT22;10741;52.272;9.580;2023-08-31T10:14:03;18.00;99.90
21167;DHT22;10741;52.272;9.580;2023-08-31T10:16:29;18.00;99.90
21167;DHT22;10741;52.272;9.580;2023-08-31T10:18:56;17.90;99.90
21167;DHT22;10741;52.272;9.580;2023-08-31T10:21:22;17.80;99.90
21167;DHT22;10741;52.272;9.580;2023-08-31T10:23:48;17.90;99.90
21167;DHT22;10741;52.272;9.580;2023-08-31T10:26:29;17.80;99.90
21167;DHT22;10741;52.272;9.580;2023-08-31T10:28:56;17.70;99.90
21167;DHT22;10741;52.272;9.580;2023-08-31T10:31:23;17.70;99.90
21167;DHT22;10741;52.272;9.580;2023-08-31T10:34:05;17.80;99.90
21167;DHT22;10741;52.272;9.580;2023-08-31T10:36:41;17.80;99.90
21167;DHT22;10741;52.272;9.580;2023-08-31T10:39:15;17.90;99.90
21167;DHT22;10741;52.272;9.580;2023-08-31T10:41:41;18.40;99.90
21167;DHT22;10741;52.272;9.580;2023-08-31T10:44:21;18.50;99.90
21167;DHT22;10741;52.272;9.580;2023-08-31T10:46:48;18.80;99.90
21167;DHT22;10741;52.272;9.580;2023-08-31T10:49:15;18.70;99.90
21167;DHT22;10741;52.272;9.580;2023-08-31T10:51:50;18.70;99.90
21167;DHT22;10741;52.272;9.580;2023-08-31T10:54:22;18.40;99.90
21167;DHT22;10741;52.272;9.580;2023-08-31T10:59:53;17.60;99.90
21167;DHT22;10741;52.272;9.580;2023-08-31T11:02:38;17.50;99.90
21167;DHT22;10741;52.272;9.580;2023-08-31T11:05:10;17.60;99.90
21167;DHT22;10741;52.272;9.580;2023-08-31T11:07:41;17.80;99.90
21167;DHT22;10741;52.272;9.580;2023-08-31T11:10:11;17.90;99.90
21167;DHT22;10741;52.272;9.580;2023-08-31T11:12:41;18.10;99.90
21167;DHT22;10741;52.272;9.580;2023-08-31T11:15:08;18.50;99.90
21167;DHT22;10741;52.272;9.580;2023-08-31T11:17:37;18.70;99.90
21167;DHT22;10741;52.272;9.580;2023-08-31T11:20:06;18.80;99.90
21167;DHT22;10741;52.272;9.580;2023-08-31T11:22:32;18.80;99.90
21167;DHT22;10741;52.272;9.580;2023-08-31T11:24:59;18.80;99.90
21167;DHT22;10741;52.272;9.580;2023-08-31T11:27:25;18.60;99.90
21167;DHT22;10741;52.272;9.580;2023-08-31T11:29:51;18.50;99.90
21167;DHT22;10741;52.272;9.580;2023-08-31T11:32:16;18.60;99.90
21167;DHT22;10741;52.272;9.580;2023-08-31T11:34:43;18.90;99.90
21167;DHT22;10741;52.272;9.580;2023-08-31T11:37:11;19.20;99.90
21167;DHT22;10741;52.272;9.580;2023-08-31T11:39:50;19.70;99.90
21167;DHT22;10741;52.272;9.580;2023-08-31T11:42:17;20.50;99.90
21167;DHT22;10741;52.272;9.580;2023-08-31T11:44:48;21.10;99.90
21167;DHT22;10741;52.272;9.580;2023-08-31T11:47:15;21.40;99.90
21167;DHT22;10741;52.272;9.580;2023-08-31T11:49:42;21.80;99.90
21167;DHT22;10741;52.272;9.580;2023-08-31T11:52:10;22.30;99.90
21167;DHT22;10741;52.272;9.580;2023-08-31T11:54:41;21.50;99.90
21167;DHT22;10741;52.272;9.580;2023-08-31T11:57:08;21.10;99.90
21167;DHT22;10741;52.272;9.580;2023-08-31T11:59:38;20.40;99.90
21167;DHT22;10741;52.272;9.580;2023-08-31T12:02:08;19.70;99.90
21167;DHT22;10741;52.272;9.580;2023-08-31T12:04:42;19.10;99.90
21167;DHT22;10741;52.272;9.580;2023-08-31T12:07:16;19.20;99.90
21167;DHT22;10741;52.272;9.580;2023-08-31T12:09:42;19.50;99.90
21167;DHT22;10741;52.272;9.580;2023-08-31T12:12:13;20.20;99.90
21167;DHT22;10741;52.272;9.580;2023-08-31T12:14:40;21.10;99.90
21167;DHT22;10741;52.272;9.580;2023-08-31T12:17:08;21.10;99.90
21167;DHT22;10741;52.272;9.580;2023-08-31T12:19:37;21.30;99.90
21167;DHT22;10741;52.272;9.580;2023-08-31T12:22:04;21.50;99.90
21167;DHT22;10741;52.272;9.580;2023-08-31T12:24:30;21.70;99.90
21167;DHT22;10741;52.272;9.580;2023-08-31T12:27:02;22.20;99.90
21167;DHT22;10741;52.272;9.580;2023-08-31T12:29:28;22.80;99.90
21167;DHT22;10741;52.272;9.580;2023-08-31T12:31:53;23.10;99.90
21167;DHT22;10741;52.272;9.580;2023-08-31T12:34:19;23.20;99.90
21167;DHT22;10741;52.272;9.580;2023-08-31T12:36:45;23.50;99.90
21167;DHT22;10741;52.272;9.580;2023-08-31T12:39:10;23.60;99.90
21167;DHT22;10741;52.272;9.580;2023-08-31T12:41:38;23.30;99.90
21167;DHT22;10741;52.272;9.580;2023-08-31T12:44:04;23.20;99.90
21167;DHT22;10741;52.272;9.580;2023-08-31T12:46:30;23.70;99.90
21167;DHT22;10741;52.272;9.580;2023-08-31T12:48:56;23.70;99.90
21167;DHT22;10741;52.272;9.580;2023-08-31T12:51:22;23.60;99.90
21167;DHT22;10741;52.272;9.580;2023-08-31T12:53:48;23.90;99.90
21167;DHT22;10741;52.272;9.580;2023-08-31T12:56:14;23.80;99.90
21167;DHT22;10741;52.272;9.580;2023-08-31T12:58:49;23.30;99.90
21167;DHT22;10741;52.272;9.580;2023-08-31T13:01:15;23.20;99.90
21167;DHT22;10741;52.272;9.580;2023-08-31T13:03:40;23.20;99.90
21167;DHT22;10741;52.272;9.580;2023-08-31T13:06:06;23.30;99.90
21167;DHT22;10741;52.272;9.580;2023-08-31T13:08:32;22.70;99.90
21167;DHT22;10741;52.272;9.580;2023-08-31T13:10:57;21.70;99.90
21167;DHT22;10741;52.272;9.580;2023-08-31T13:13:23;20.60;99.90
21167;DHT22;10741;52.272;9.580;2023-08-31T13:15:49;19.70;99.90
21167;DHT22;10741;52.272;9.580;2023-08-31T13:18:15;19.10;99.90
21167;DHT22;10741;52.272;9.580;2023-08-31T13:20:49;18.60;99.90
21167;DHT22;10741;52.272;9.580;2023-08-31T13:23:14;17.80;99.90
21167;DHT22;10741;52.272;9.580;2023-08-31T13:25:40;17.20;99.90
21167;DHT22;10741;52.272;9.580;2023-08-31T13:28:06;17.30;99.90
21167;DHT22;10741;52.272;9.580;2023-08-31T13:30:31;18.50;99.90
21167;DHT22;10741;52.272;9.580;2023-08-31T13:32:57;19.60;99.90
21167;DHT22;10741;52.272;9.580;2023-08-31T13:35:23;19.20;99.90
21167;DHT22;10741;52.272;9.580;2023-08-31T13:37:49;18.70;99.90
21167;DHT22;10741;52.272;9.580;2023-08-31T13:40:14;18.40;99.90
21167;DHT22;10741;52.272;9.580;2023-08-31T13:42:55;17.90;99.90
21167;DHT22;10741;52.272;9.580;2023-08-31T13:45:26;17.80;99.90
21167;DHT22;10741;52.272;9.580;2023-08-31T13:47:53;17.60;99.90
21167;DHT22;10741;52.272;9.580;2023-08-31T13:50:18;17.50;99.90
21167;DHT22;10741;52.272;9.580;2023-08-31T13:52:45;17.60;99.90
21167;DHT22;10741;52.272;9.580;2023-08-31T13:55:10;17.90;99.90
21167;DHT22;10741;52.272;9.580;2023-08-31T13:57:37;18.30;99.90
21167;DHT22;10741;52.272;9.580;2023-08-31T14:00:04;18.30;99.90
21167;DHT22;10741;52.272;9.580;2023-08-31T14:02:30;18.30;99.90
21167;DHT22;10741;52.272;9.580;2023-08-31T14:04:56;18.00;99.90
21167;DHT22;10741;52.272;9.580;2023-08-31T14:07:22;17.80;99.90
21167;DHT22;10741;52.272;9.580;2023-08-31T14:09:48;17.80;99.90
21167;DHT22;10741;52.272;9.580;2023-08-31T14:12:14;18.00;99.90
21167;DHT22;10741;52.272;9.580;2023-08-31T14:14:39;18.10;99.90
21167;DHT22;10741;52.272;9.580;2023-08-31T14:17:07;18.00;99.90
21167;DHT22;10741;52.272;9.580;2023-08-31T14:19:33;18.10;99.90
21167;DHT22;10741;52.272;9.580;2023-08-31T14:22:01;18.20;99.90
21167;DHT22;10741;52.272;9.580;2023-08-31T14:24:29;19.00;99.90
21167;DHT22;10741;52.272;9.580;2023-08-31T14:26:55;20.10;99.90
21167;DHT22;10741;52.272;9.580;2023-08-31T14:29:20;20.60;99.90
21167;DHT22;10741;52.272;9.580;2023-08-31T14:31:46;20.80;99.90
21167;DHT22;10741;52.272;9.580;2023-08-31T14:34:12;20.80;99.90
21167;DHT22;10741;52.272;9.580;2023-08-31T14:36:38;21.20;99.90
21167;DHT22;10741;52.272;9.580;2023-08-31T14:39:03;21.30;99.90
21167;DHT22;10741;52.272;9.580;2023-08-31T14:41:32;21.30;99.90
21167;DHT22;10741;52.272;9.580;2023-08-31T14:43:57;21.30;99.90
21167;DHT22;10741;52.272;9.580;2023-08-31T14:46:23;21.20;99.90
21167;DHT22;10741;52.272;9.580;2023-08-31T14:48:50;20.60;99.90
21167;DHT22;10741;52.272;9.580;2023-08-31T14:51:16;20.40;99.90
21167;DHT22;10741;52.272;9.580;2023-08-31T14:53:42;20.10;99.90
21167;DHT22;10741;52.272;9.580;2023-08-31T14:56:08;20.10;99.90
21167;DHT22;10741;52.272;9.580;2023-08-31T14:58:34;19.60;99.90
21167;DHT22;10741;52.272;9.580;2023-08-31T15:01:00;19.50;99.90
21167;DHT22;10741;52.272;9.580;2023-08-31T15:03:26;19.10;99.90
21167;DHT22;10741;52.272;9.580;2023-08-31T15:05:51;19.10;99.90
21167;DHT22;10741;52.272;9.580;2023-08-31T15:08:17;19.20;99.90
21167;DHT22;10741;52.272;9.580;2023-08-31T15:10:43;19.40;99.90
21167;DHT22;10741;52.272;9.580;2023-08-31T15:13:09;19.50;99.90
21167;DHT22;10741;52.272;9.580;2023-08-31T15:15:35;19.70;99.90
21167;DHT22;10741;52.272;9.580;2023-08-31T15:18:00;19.50;99.90
21167;DHT22;10741;52.272;9.580;2023-08-31T15:20:26;19.40;99.90
21167;DHT22;10741;52.272;9.580;2023-08-31T15:22:53;19.00;99.90
21167;DHT22;10741;52.272;9.580;2023-08-31T15:25:19;18.60;99.90
21167;DHT22;10741;52.272;9.580;2023-08-31T15:27:45;18.40;99.90
21167;DHT22;10741;52.272;9.580;2023-08-31T15:30:11;18.30;99.90
21167;DHT22;10741;52.272;9.580;2023-08-31T15:32:37;18.30;99.90
21167;DHT22;10741;52.272;9.580;2023-08-31T15:35:04;18.10;99.90
21167;DHT22;10741;52.272;9.580;2023-08-31T15:37:30;18.00;99.90
21167;DHT22;10741;52.272;9.580;2023-08-31T15:39:56;17.90;99.90
21167;DHT22;10741;52.272;9.580;2023-08-31T15:42:25;17.90;99.90